sensor_id;sensor_type;location;lat;lon;timestamp;pressure;altitude;pressure_sealevel;temperature;humidity
70338;BME280;57757;53.198;19.646;2022-09-09T00:07:47;99874.44;;;16.22;32.20
70338;BME280;57757;53.198;19.646;2022-09-09T00:10:38;99870.44;;;16.22;32.38
70338;BME280;57757;53.198;19.646;2022-09-09T00:22:18;99878.20;;;16.17;32.81
70338;BME280;57757;53.198;19.646;2022-09-09T00:24:52;99881.41;;;16.17;32.72
70338;BME280;57757;53.198;19.646;2022-09-09T00:30:23;99885.61;;;16.17;32.84
70338;BME280;57757;53.198;19.646;2022-09-09T00:33:11;99888.63;;;16.16;32.82
70338;BME280;57757;53.198;19.646;2022-09-09T00:35:48;99890.73;;;16.17;32.97
70338;BME280;57757;53.198;19.646;2022-09-09T00:38:25;99892.30;;;16.16;33.24
70338;BME280;57757;53.198;19.646;2022-09-09T00:41:09;99894.02;;;16.10;33.75
70338;BME280;57757;53.198;19.646;2022-09-09T00:43:40;99903.89;;;15.95;34.36
70338;BME280;57757;53.198;19.646;2022-09-09T00:55:03;99915.35;;;15.14;36.54
70338;BME280;57757;53.198;19.646;2022-09-09T00:57:34;99916.60;;;15.02;37.18
70338;BME280;57757;53.198;19.646;2022-09-09T01:08:49;99924.90;;;14.69;38.78
70338;BME280;57757;53.198;19.646;2022-09-09T01:11:25;99924.90;;;14.58;39.16
70338;BME280;57757;53.198;19.646;2022-09-09T01:14:02;99922.15;;;14.49;39.31
70338;BME280;57757;53.198;19.646;2022-09-09T01:16:37;99926.92;;;14.44;39.81
70338;BME280;57757;53.198;19.646;2022-09-09T01:19:07;99935.26;;;14.41;39.93
70338;BME280;57757;53.198;19.646;2022-09-09T01:21:51;99929.50;;;14.37;40.23
70338;BME280;57757;53.198;19.646;2022-09-09T01:24:27;99929.40;;;14.34;40.59
70338;BME280;57757;53.198;19.646;2022-09-09T01:27:02;99926.26;;;14.34;40.66
70338;BME280;57757;53.198;19.646;2022-09-09T01:29:31;99925.56;;;14.30;40.82
70338;BME280;57757;53.198;19.646;2022-09-09T01:32:01;99923.69;;;14.25;41.04
70338;BME280;57757;53.198;19.646;2022-09-09T01:34:38;99924.65;;;14.18;41.08
70338;BME280;57757;53.198;19.646;2022-09-09T01:37:09;99927.14;;;14.09;41.46
70338;BME280;57757;53.198;19.646;2022-09-09T01:39:40;99925.64;;;14.04;41.52
70338;BME280;57757;53.198;19.646;2022-09-09T01:42:12;99922.20;;;13.98;41.72
70338;BME280;57757;53.198;19.646;2022-09-09T01:44:40;99920.71;;;13.96;41.96
70338;BME280;57757;53.198;19.646;2022-09-09T01:47:08;99914.50;;;13.94;42.26
70338;BME280;57757;53.198;19.646;2022-09-09T01:49:36;99916.42;;;13.89;42.19
70338;BME280;57757;53.198;19.646;2022-09-09T01:52:04;99912.89;;;13.86;42.72
70338;BME280;57757;53.198;19.646;2022-09-09T01:54:32;99915.81;;;13.83;42.68
70338;BME280;57757;53.198;19.646;2022-09-09T02:00:07;99918.15;;;13.81;43.08
70338;BME280;57757;53.198;19.646;2022-09-09T02:08:32;99919.20;;;13.72;43.82
70338;BME280;57757;53.198;19.646;2022-09-09T02:11:21;99916.89;;;13.69;43.95
70338;BME280;57757;53.198;19.646;2022-09-09T02:13:53;99915.84;;;13.70;44.15
70338;BME280;57757;53.198;19.646;2022-09-09T02:19:16;99911.48;;;13.69;44.41
70338;BME280;57757;53.198;19.646;2022-09-09T02:21:45;99911.50;;;13.68;44.66
70338;BME280;57757;53.198;19.646;2022-09-09T02:24:15;99906.02;;;13.67;44.90
70338;BME280;57757;53.198;19.646;2022-09-09T02:26:44;99903.59;;;13.66;44.86
70338;BME280;57757;53.198;19.646;2022-09-09T02:29:17;99905.69;;;13.66;44.98
70338;BME280;57757;53.198;19.646;2022-09-09T02:31:47;99907.44;;;13.65;45.13
70338;BME280;57757;53.198;19.646;2022-09-09T02:34:19;99906.20;;;13.66;45.14
70338;BME280;57757;53.198;19.646;2022-09-09T02:36:49;99901.66;;;13.66;45.48
70338;BME280;57757;53.198;19.646;2022-09-09T02:39:20;99898.77;;;13.64;45.44
70338;BME280;57757;53.198;19.646;2022-09-09T02:41:47;99897.80;;;13.62;45.54
70338;BME280;57757;53.198;19.646;2022-09-09T02:44:17;99903.10;;;13.56;45.66
70338;BME280;57757;53.198;19.646;2022-09-09T02:52:26;99896.98;;;13.52;46.13
70338;BME280;57757;53.198;19.646;2022-09-09T02:55:04;99902.90;;;13.53;46.24
70338;BME280;57757;53.198;19.646;2022-09-09T02:57:34;99903.17;;;13.50;46.54
70338;BME280;57757;53.198;19.646;2022-09-09T03:00:03;99902.05;;;13.48;46.60
70338;BME280;57757;53.198;19.646;2022-09-09T03:02:31;99904.73;;;13.46;46.65
70338;BME280;57757;53.198;19.646;2022-09-09T03:04:58;99906.05;;;13.44;46.90
70338;BME280;57757;53.198;19.646;2022-09-09T03:07:26;99908.75;;;13.42;46.84
70338;BME280;57757;53.198;19.646;2022-09-09T03:09:54;99914.52;;;13.41;47.12
70338;BME280;57757;53.198;19.646;2022-09-09T03:12:22;99916.66;;;13.40;47.13
70338;BME280;57757;53.198;19.646;2022-09-09T03:14:49;99915.15;;;13.38;47.34
70338;BME280;57757;53.198;19.646;2022-09-09T03:17:17;99921.04;;;13.40;47.44
70338;BME280;57757;53.198;19.646;2022-09-09T03:19:45;99917.20;;;13.40;47.46
70338;BME280;57757;53.198;19.646;2022-09-09T03:22:12;99917.98;;;13.42;47.64
70338;BME280;57757;53.198;19.646;2022-09-09T03:24:40;99919.10;;;13.45;47.80
70338;BME280;57757;53.198;19.646;2022-09-09T03:27:07;99916.94;;;13.46;47.81
70338;BME280;57757;53.198;19.646;2022-09-09T03:29:35;99914.45;;;13.48;47.96
70338;BME280;57757;53.198;19.646;2022-09-09T03:32:02;99911.48;;;13.48;47.87
70338;BME280;57757;53.198;19.646;2022-09-09T03:34:30;99909.77;;;13.47;48.06
70338;BME280;57757;53.198;19.646;2022-09-09T03:36:58;99909.60;;;13.46;48.28
70338;BME280;57757;53.198;19.646;2022-09-09T03:39:26;99913.98;;;13.46;48.23
70338;BME280;57757;53.198;19.646;2022-09-09T03:41:53;99913.98;;;13.47;48.43
70338;BME280;57757;53.198;19.646;2022-09-09T03:44:21;99916.05;;;13.47;48.51
70338;BME280;57757;53.198;19.646;2022-09-09T03:46:48;99913.84;;;13.46;48.68
70338;BME280;57757;53.198;19.646;2022-09-09T03:49:16;99915.33;;;13.43;48.72
70338;BME280;57757;53.198;19.646;2022-09-09T03:51:44;99912.30;;;13.40;48.82
70338;BME280;57757;53.198;19.646;2022-09-09T03:54:11;99910.79;;;13.39;48.84
70338;BME280;57757;53.198;19.646;2022-09-09T03:56:38;99909.38;;;13.39;48.82
70338;BME280;57757;53.198;19.646;2022-09-09T03:59:08;99910.92;;;13.40;49.06
70338;BME280;57757;53.198;19.646;2022-09-09T04:01:36;99911.54;;;13.42;49.16
70338;BME280;57757;53.198;19.646;2022-09-09T04:04:03;99912.66;;;13.40;49.27
70338;BME280;57757;53.198;19.646;2022-09-09T04:06:30;99916.05;;;13.38;49.43
70338;BME280;57757;53.198;19.646;2022-09-09T04:08:58;99917.13;;;13.37;49.58
70338;BME280;57757;53.198;19.646;2022-09-09T04:11:25;99915.11;;;13.35;49.48
70338;BME280;57757;53.198;19.646;2022-09-09T04:13:53;99913.52;;;13.36;49.63
70338;BME280;57757;53.198;19.646;2022-09-09T04:16:20;99912.48;;;13.36;49.69
70338;BME280;57757;53.198;19.646;2022-09-09T04:18:48;99912.52;;;13.34;49.81
70338;BME280;57757;53.198;19.646;2022-09-09T04:21:16;99915.52;;;13.34;49.87
70338;BME280;57757;53.198;19.646;2022-09-09T04:23:44;99915.58;;;13.33;49.91
70338;BME280;57757;53.198;19.646;2022-09-09T04:26:11;99917.84;;;13.33;50.03
70338;BME280;57757;53.198;19.646;2022-09-09T04:28:39;99915.85;;;13.30;50.14
70338;BME280;57757;53.198;19.646;2022-09-09T04:31:14;99919.48;;;13.31;50.27
70338;BME280;57757;53.198;19.646;2022-09-09T04:33:43;99922.07;;;13.32;50.20
70338;BME280;57757;53.198;19.646;2022-09-09T04:36:10;99922.58;;;13.32;50.39
70338;BME280;57757;53.198;19.646;2022-09-09T04:38:38;99924.77;;;13.34;50.59
70338;BME280;57757;53.198;19.646;2022-09-09T04:41:06;99924.94;;;13.34;50.52
70338;BME280;57757;53.198;19.646;2022-09-09T04:43:35;99923.06;;;13.33;50.54
70338;BME280;57757;53.198;19.646;2022-09-09T04:46:03;99926.42;;;13.32;50.75
70338;BME280;57757;53.198;19.646;2022-09-09T04:48:31;99930.02;;;13.34;50.79
70338;BME280;57757;53.198;19.646;2022-09-09T04:51:04;99931.88;;;13.35;50.66
70338;BME280;57757;53.198;19.646;2022-09-09T04:53:32;99932.35;;;13.36;50.81
70338;BME280;57757;53.198;19.646;2022-09-09T04:56:04;99931.56;;;13.39;50.95
70338;BME280;57757;53.198;19.646;2022-09-09T04:58:32;99928.38;;;13.40;51.14
70338;BME280;57757;53.198;19.646;2022-09-09T05:01:07;99930.88;;;13.43;51.06
70338;BME280;57757;53.198;19.646;2022-09-09T05:03:36;99927.75;;;13.42;51.18
70338;BME280;57757;53.198;19.646;2022-09-09T05:06:06;99928.71;;;13.40;51.14
70338;BME280;57757;53.198;19.646;2022-09-09T05:08:36;99929.37;;;13.41;51.21
70338;BME280;57757;53.198;19.646;2022-09-09T05:11:27;99930.03;;;13.42;51.51
70338;BME280;57757;53.198;19.646;2022-09-09T05:13:55;99932.19;;;13.46;51.34
70338;BME280;57757;53.198;19.646;2022-09-09T05:16:26;99930.71;;;13.47;51.48
70338;BME280;57757;53.198;19.646;2022-09-09T05:18:54;99927.55;;;13.48;51.60
70338;BME280;57757;53.198;19.646;2022-09-09T05:21:23;99925.38;;;13.49;51.61
70338;BME280;57757;53.198;19.646;2022-09-09T05:23:52;99927.90;;;13.52;51.78
70338;BME280;57757;53.198;19.646;2022-09-09T05:26:22;99928.30;;;13.55;51.73
70338;BME280;57757;53.198;19.646;2022-09-09T05:28:51;99927.32;;;13.58;51.89
70338;BME280;57757;53.198;19.646;2022-09-09T05:31:19;99926.32;;;13.57;51.88
70338;BME280;57757;53.198;19.646;2022-09-09T05:33:47;99927.79;;;13.59;52.06
70338;BME280;57757;53.198;19.646;2022-09-09T05:36:19;99928.05;;;13.61;52.17
70338;BME280;57757;53.198;19.646;2022-09-09T05:38:48;99932.59;;;13.61;52.07
70338;BME280;57757;53.198;19.646;2022-09-09T05:41:17;99930.15;;;13.61;52.07
70338;BME280;57757;53.198;19.646;2022-09-09T05:43:46;99933.70;;;13.64;52.20
70338;BME280;57757;53.198;19.646;2022-09-09T05:46:20;99937.10;;;13.66;52.22
70338;BME280;57757;53.198;19.646;2022-09-09T05:48:48;99939.61;;;13.69;52.20
70338;BME280;57757;53.198;19.646;2022-09-09T05:51:23;99943.41;;;13.71;52.34
70338;BME280;57757;53.198;19.646;2022-09-09T05:53:52;99941.52;;;13.74;52.44
70338;BME280;57757;53.198;19.646;2022-09-09T05:56:21;99939.66;;;13.77;52.52
70338;BME280;57757;53.198;19.646;2022-09-09T05:58:50;99936.57;;;13.80;52.70
70338;BME280;57757;53.198;19.646;2022-09-09T06:01:25;99937.09;;;13.84;52.62
70338;BME280;57757;53.198;19.646;2022-09-09T06:03:53;99932.84;;;13.85;52.58
70338;BME280;57757;53.198;19.646;2022-09-09T06:06:34;99933.17;;;13.86;52.75
70338;BME280;57757;53.198;19.646;2022-09-09T06:09:08;99931.50;;;13.88;52.73
70338;BME280;57757;53.198;19.646;2022-09-09T06:11:39;99936.57;;;13.88;52.89
70338;BME280;57757;53.198;19.646;2022-09-09T06:14:07;99942.66;;;13.89;53.01
70338;BME280;57757;53.198;19.646;2022-09-09T06:16:35;99945.84;;;13.88;52.81
70338;BME280;57757;53.198;19.646;2022-09-09T06:19:05;99952.11;;;13.88;52.82
70338;BME280;57757;53.198;19.646;2022-09-09T06:21:34;99954.13;;;13.91;52.84
70338;BME280;57757;53.198;19.646;2022-09-09T06:24:04;99955.88;;;13.91;52.95
70338;BME280;57757;53.198;19.646;2022-09-09T06:26:34;99960.91;;;13.92;53.00
70338;BME280;57757;53.198;19.646;2022-09-09T06:29:03;99964.15;;;13.89;53.06
70338;BME280;57757;53.198;19.646;2022-09-09T06:31:33;99969.28;;;13.87;53.11
70338;BME280;57757;53.198;19.646;2022-09-09T06:34:04;99970.15;;;13.88;53.16
70338;BME280;57757;53.198;19.646;2022-09-09T06:36:34;99968.48;;;13.86;53.15
70338;BME280;57757;53.198;19.646;2022-09-09T06:39:05;99969.89;;;13.85;53.19
70338;BME280;57757;53.198;19.646;2022-09-09T06:41:41;99970.87;;;13.87;53.33
70338;BME280;57757;53.198;19.646;2022-09-09T06:44:10;99971.06;;;13.92;53.53
70338;BME280;57757;53.198;19.646;2022-09-09T06:46:39;99974.83;;;13.94;53.48
70338;BME280;57757;53.198;19.646;2022-09-09T06:49:08;99977.05;;;13.95;53.44
70338;BME280;57757;53.198;19.646;2022-09-09T06:51:37;99979.67;;;13.95;53.49
70338;BME280;57757;53.198;19.646;2022-09-09T06:54:11;99981.91;;;13.95;53.53
70338;BME280;57757;53.198;19.646;2022-09-09T06:56:40;99987.19;;;13.95;53.42
70338;BME280;57757;53.198;19.646;2022-09-09T06:59:11;99989.70;;;13.98;53.68
70338;BME280;57757;53.198;19.646;2022-09-09T07:01:46;99983.50;;;14.04;53.61
70338;BME280;57757;53.198;19.646;2022-09-09T07:04:22;99981.23;;;14.12;53.75
70338;BME280;57757;53.198;19.646;2022-09-09T07:06:50;99977.67;;;14.18;53.82
70338;BME280;57757;53.198;19.646;2022-09-09T07:09:20;99983.09;;;14.18;53.77
70338;BME280;57757;53.198;19.646;2022-09-09T07:11:49;99977.79;;;14.19;53.81
70338;BME280;57757;53.198;19.646;2022-09-09T07:14:19;99981.42;;;14.20;53.66
70338;BME280;57757;53.198;19.646;2022-09-09T07:16:46;99982.80;;;14.21;53.76
70338;BME280;57757;53.198;19.646;2022-09-09T07:19:14;99981.34;;;14.22;53.88
70338;BME280;57757;53.198;19.646;2022-09-09T07:21:42;99984.23;;;14.24;53.74
70338;BME280;57757;53.198;19.646;2022-09-09T07:24:11;99984.52;;;14.25;54.07
70338;BME280;57757;53.198;19.646;2022-09-09T07:26:41;99981.30;;;14.27;53.96
70338;BME280;57757;53.198;19.646;2022-09-09T07:29:08;99977.45;;;14.31;53.99
70338;BME280;57757;53.198;19.646;2022-09-09T07:31:37;99978.23;;;14.33;54.06
70338;BME280;57757;53.198;19.646;2022-09-09T07:34:08;99979.25;;;14.34;53.95
70338;BME280;57757;53.198;19.646;2022-09-09T07:36:37;99982.86;;;14.37;53.89
70338;BME280;57757;53.198;19.646;2022-09-09T07:39:08;99982.30;;;14.41;54.03
70338;BME280;57757;53.198;19.646;2022-09-09T07:41:44;99984.04;;;14.46;54.05
70338;BME280;57757;53.198;19.646;2022-09-09T07:44:15;99987.42;;;14.52;54.07
70338;BME280;57757;53.198;19.646;2022-09-09T07:46:44;99993.45;;;14.59;54.20
70338;BME280;57757;53.198;19.646;2022-09-09T07:49:14;99998.45;;;14.65;54.29
70338;BME280;57757;53.198;19.646;2022-09-09T07:51:46;100001.52;;;14.70;54.27
70338;BME280;57757;53.198;19.646;2022-09-09T07:54:18;100010.52;;;14.81;54.37
70338;BME280;57757;53.198;19.646;2022-09-09T07:56:51;100003.15;;;14.90;53.89
70338;BME280;57757;53.198;19.646;2022-09-09T07:59:19;100002.27;;;14.90;54.08
70338;BME280;57757;53.198;19.646;2022-09-09T08:01:53;100010.20;;;14.89;53.93
70338;BME280;57757;53.198;19.646;2022-09-09T08:04:26;100013.33;;;14.84;54.08
70338;BME280;57757;53.198;19.646;2022-09-09T08:07:01;100018.05;;;14.80;54.03
70338;BME280;57757;53.198;19.646;2022-09-09T08:09:30;100022.04;;;14.77;54.27
70338;BME280;57757;53.198;19.646;2022-09-09T08:11:59;100023.19;;;14.75;54.39
70338;BME280;57757;53.198;19.646;2022-09-09T08:14:29;100025.20;;;14.77;54.33
70338;BME280;57757;53.198;19.646;2022-09-09T08:16:57;100022.24;;;14.80;54.25
70338;BME280;57757;53.198;19.646;2022-09-09T08:19:25;100027.06;;;14.82;54.33
70338;BME280;57757;53.198;19.646;2022-09-09T08:21:53;100031.17;;;14.80;54.31
70338;BME280;57757;53.198;19.646;2022-09-09T08:24:21;100034.81;;;14.81;54.43
70338;BME280;57757;53.198;19.646;2022-09-09T08:26:50;100034.45;;;14.82;54.52
70338;BME280;57757;53.198;19.646;2022-09-09T08:29:18;100043.66;;;14.79;54.61
70338;BME280;57757;53.198;19.646;2022-09-09T08:31:50;100041.12;;;14.77;54.33
70338;BME280;57757;53.198;19.646;2022-09-09T08:34:18;100037.52;;;14.79;54.59
70338;BME280;57757;53.198;19.646;2022-09-09T08:36:48;100044.19;;;14.83;54.51
70338;BME280;57757;53.198;19.646;2022-09-09T08:39:20;100047.31;;;14.89;54.73
70338;BME280;57757;53.198;19.646;2022-09-09T08:45:12;100046.60;;;14.97;54.75
70338;BME280;57757;53.198;19.646;2022-09-09T08:48:15;100043.14;;;14.92;54.79
70338;BME280;57757;53.198;19.646;2022-09-09T08:50:49;100041.39;;;14.88;54.82
70338;BME280;57757;53.198;19.646;2022-09-09T08:53:28;100038.52;;;14.86;54.54
70338;BME280;57757;53.198;19.646;2022-09-09T08:55:59;100042.85;;;14.82;54.76
70338;BME280;57757;53.198;19.646;2022-09-09T08:58:33;100044.64;;;14.81;54.83
70338;BME280;57757;53.198;19.646;2022-09-09T09:11:25;100043.89;;;15.02;55.15
70338;BME280;57757;53.198;19.646;2022-09-09T09:14:07;100047.02;;;15.11;55.02
70338;BME280;57757;53.198;19.646;2022-09-09T09:16:45;100049.48;;;15.18;55.01
70338;BME280;57757;53.198;19.646;2022-09-09T09:19:16;100050.82;;;15.20;54.93
70338;BME280;57757;53.198;19.646;2022-09-09T09:21:52;100056.93;;;15.20;54.82
70338;BME280;57757;53.198;19.646;2022-09-09T09:24:34;100058.58;;;15.18;55.00
70338;BME280;57757;53.198;19.646;2022-09-09T09:27:21;100063.23;;;15.17;54.93
70338;BME280;57757;53.198;19.646;2022-09-09T09:29:54;100060.95;;;15.13;54.88
70338;BME280;57757;53.198;19.646;2022-09-09T09:32:54;100059.02;;;15.13;55.12
70338;BME280;57757;53.198;19.646;2022-09-09T09:35:23;100060.98;;;15.16;55.04
70338;BME280;57757;53.198;19.646;2022-09-09T09:37:52;100062.77;;;15.19;55.19
70338;BME280;57757;53.198;19.646;2022-09-09T09:40:51;100061.61;;;15.25;55.38
70338;BME280;57757;53.198;19.646;2022-09-09T09:43:26;100055.30;;;15.30;55.20
70338;BME280;57757;53.198;19.646;2022-09-09T09:45:56;100057.95;;;15.29;55.04
70338;BME280;57757;53.198;19.646;2022-09-09T09:48:45;100064.14;;;15.28;55.13
70338;BME280;57757;53.198;19.646;2022-09-09T09:51:24;100068.61;;;15.30;55.23
70338;BME280;57757;53.198;19.646;2022-09-09T09:53:53;100069.52;;;15.33;55.27
70338;BME280;57757;53.198;19.646;2022-09-09T09:56:30;100067.84;;;15.35;55.10
70338;BME280;57757;53.198;19.646;2022-09-09T09:58:58;100065.23;;;15.34;55.16
70338;BME280;57757;53.198;19.646;2022-09-09T10:01:27;100066.77;;;15.36;55.32
70338;BME280;57757;53.198;19.646;2022-09-09T10:04:00;100063.80;;;15.35;55.36
70338;BME280;57757;53.198;19.646;2022-09-09T10:06:34;100067.44;;;15.36;55.49
70338;BME280;57757;53.198;19.646;2022-09-09T10:09:04;100070.30;;;15.39;55.38
70338;BME280;57757;53.198;19.646;2022-09-09T10:14:57;100075.00;;;15.35;55.16
70338;BME280;57757;53.198;19.646;2022-09-09T10:26:19;100070.14;;;15.26;55.38
70338;BME280;57757;53.198;19.646;2022-09-09T10:32:09;100084.27;;;15.28;55.71
70338;BME280;57757;53.198;19.646;2022-09-09T10:57:36;100094.29;;;15.59;55.81
70338;BME280;57757;53.198;19.646;2022-09-09T11:03:02;100096.55;;;15.55;55.51
70338;BME280;57757;53.198;19.646;2022-09-09T11:05:36;100096.07;;;15.51;55.72
70338;BME280;57757;53.198;19.646;2022-09-09T11:08:17;100103.21;;;15.55;56.05
70338;BME280;57757;53.198;19.646;2022-09-09T11:11:02;100104.39;;;15.60;55.79
70338;BME280;57757;53.198;19.646;2022-09-09T11:21:45;100106.95;;;15.77;56.14
70338;BME280;57757;53.198;19.646;2022-09-09T11:24:21;100110.49;;;15.84;55.96
70338;BME280;57757;53.198;19.646;2022-09-09T11:26:58;100113.84;;;15.88;56.09
70338;BME280;57757;53.198;19.646;2022-09-09T11:40:57;100117.33;;;15.76;56.16
70338;BME280;57757;53.198;19.646;2022-09-09T11:43:30;100119.83;;;15.75;56.08
70338;BME280;57757;53.198;19.646;2022-09-09T11:46:02;100114.86;;;15.76;56.17
70338;BME280;57757;53.198;19.646;2022-09-09T11:51:32;100117.63;;;15.82;56.17
70338;BME280;57757;53.198;19.646;2022-09-09T11:56:50;100118.50;;;15.89;56.29
70338;BME280;57757;53.198;19.646;2022-09-09T11:59:23;100121.16;;;15.92;56.26
70338;BME280;57757;53.198;19.646;2022-09-09T12:07:04;100122.16;;;16.05;56.40
70338;BME280;57757;53.198;19.646;2022-09-09T12:14:59;100119.37;;;16.04;56.17
70338;BME280;57757;53.198;19.646;2022-09-09T12:17:29;100121.95;;;16.05;56.57
70338;BME280;57757;53.198;19.646;2022-09-09T12:20:54;100123.89;;;16.09;56.59
70338;BME280;57757;53.198;19.646;2022-09-09T12:26:07;100126.58;;;16.08;56.38
70338;BME280;57757;53.198;19.646;2022-09-09T12:31:23;100124.84;;;16.04;56.36
70338;BME280;57757;53.198;19.646;2022-09-09T12:33:53;100126.17;;;15.98;56.33
70338;BME280;57757;53.198;19.646;2022-09-09T12:36:27;100128.88;;;15.92;56.45
70338;BME280;57757;53.198;19.646;2022-09-09T12:39:12;100130.02;;;15.90;56.59
70338;BME280;57757;53.198;19.646;2022-09-09T12:41:51;100126.95;;;15.88;56.63
70338;BME280;57757;53.198;19.646;2022-09-09T12:44:25;100122.51;;;15.90;57.00
70338;BME280;57757;53.198;19.646;2022-09-09T12:46:58;100120.19;;;15.91;56.87
70338;BME280;57757;53.198;19.646;2022-09-09T12:52:21;100130.20;;;15.90;56.86
70338;BME280;57757;53.198;19.646;2022-09-09T12:54:51;100130.29;;;15.89;56.98
70338;BME280;57757;53.198;19.646;2022-09-09T12:57:23;100127.65;;;15.88;56.94
70338;BME280;57757;53.198;19.646;2022-09-09T13:02:51;100117.20;;;15.91;57.15
70338;BME280;57757;53.198;19.646;2022-09-09T13:05:23;100119.39;;;15.93;57.11
70338;BME280;57757;53.198;19.646;2022-09-09T13:07:51;100123.64;;;15.99;57.33
70338;BME280;57757;53.198;19.646;2022-09-09T13:10:29;100122.45;;;16.06;57.32
70338;BME280;57757;53.198;19.646;2022-09-09T13:13:17;100115.39;;;16.10;57.09
70338;BME280;57757;53.198;19.646;2022-09-09T13:15:50;100109.01;;;16.15;57.11
70338;BME280;57757;53.198;19.646;2022-09-09T13:18:21;100100.77;;;16.19;57.22
70338;BME280;57757;53.198;19.646;2022-09-09T13:20:50;100091.46;;;16.19;57.23
70338;BME280;57757;53.198;19.646;2022-09-09T13:23:20;100090.59;;;16.19;57.21
70338;BME280;57757;53.198;19.646;2022-09-09T13:28:33;100102.98;;;16.17;57.10
70338;BME280;57757;53.198;19.646;2022-09-09T13:31:04;100100.36;;;16.17;57.20
70338;BME280;57757;53.198;19.646;2022-09-09T13:33:36;100094.77;;;16.20;57.27
70338;BME280;57757;53.198;19.646;2022-09-09T13:36:09;100096.12;;;16.21;57.29
70338;BME280;57757;53.198;19.646;2022-09-09T13:38:54;100099.16;;;16.23;57.42
70338;BME280;57757;53.198;19.646;2022-09-09T13:41:25;100101.48;;;16.26;57.39
70338;BME280;57757;53.198;19.646;2022-09-09T13:43:53;100101.13;;;16.26;57.43
70338;BME280;57757;53.198;19.646;2022-09-09T13:46:40;100098.50;;;16.22;57.36
70338;BME280;57757;53.198;19.646;2022-09-09T13:51:44;100103.67;;;16.10;57.37
70338;BME280;57757;53.198;19.646;2022-09-09T13:54:16;100107.39;;;16.06;57.58
70338;BME280;57757;53.198;19.646;2022-09-09T13:56:44;100106.08;;;16.07;57.29
70338;BME280;57757;53.198;19.646;2022-09-09T13:59:15;100106.10;;;16.06;57.56
70338;BME280;57757;53.198;19.646;2022-09-09T14:01:43;100105.34;;;16.08;57.59
70338;BME280;57757;53.198;19.646;2022-09-09T14:04:11;100101.06;;;16.06;57.71
70338;BME280;57757;53.198;19.646;2022-09-09T14:06:39;100099.02;;;16.04;57.71
70338;BME280;57757;53.198;19.646;2022-09-09T14:09:11;100103.34;;;16.02;57.71
70338;BME280;57757;53.198;19.646;2022-09-09T14:11:39;100107.38;;;15.99;57.63
70338;BME280;57757;53.198;19.646;2022-09-09T14:14:07;100109.16;;;15.98;57.82
70338;BME280;57757;53.198;19.646;2022-09-09T14:16:37;100111.97;;;16.02;57.73
70338;BME280;57757;53.198;19.646;2022-09-09T14:19:05;100117.77;;;16.05;57.85
70338;BME280;57757;53.198;19.646;2022-09-09T14:21:32;100119.56;;;16.08;58.01
70338;BME280;57757;53.198;19.646;2022-09-09T14:24:00;100121.77;;;16.09;57.81
70338;BME280;57757;53.198;19.646;2022-09-09T14:26:28;100124.00;;;16.06;57.71
70338;BME280;57757;53.198;19.646;2022-09-09T14:28:58;100123.27;;;16.03;57.84
70338;BME280;57757;53.198;19.646;2022-09-09T14:31:33;100120.91;;;16.01;57.92
70338;BME280;57757;53.198;19.646;2022-09-09T14:34:00;100123.55;;;15.98;57.98
70338;BME280;57757;53.198;19.646;2022-09-09T14:36:28;100124.61;;;15.98;58.17
70338;BME280;57757;53.198;19.646;2022-09-09T14:38:56;100130.09;;;15.96;58.09
70338;BME280;57757;53.198;19.646;2022-09-09T14:41:25;100133.64;;;15.95;58.07
70338;BME280;57757;53.198;19.646;2022-09-09T14:43:52;100139.98;;;15.95;58.19
70338;BME280;57757;53.198;19.646;2022-09-09T14:46:21;100138.51;;;15.97;58.20
70338;BME280;57757;53.198;19.646;2022-09-09T14:48:49;100142.31;;;15.98;58.32
70338;BME280;57757;53.198;19.646;2022-09-09T14:51:19;100138.23;;;15.99;58.27
70338;BME280;57757;53.198;19.646;2022-09-09T14:53:56;100133.09;;;15.99;58.30
70338;BME280;57757;53.198;19.646;2022-09-09T14:56:26;100131.95;;;15.98;58.27
70338;BME280;57757;53.198;19.646;2022-09-09T14:58:55;100131.76;;;15.98;58.34
70338;BME280;57757;53.198;19.646;2022-09-09T15:01:24;100135.44;;;15.98;58.44
70338;BME280;57757;53.198;19.646;2022-09-09T15:04:03;100136.48;;;15.98;58.46
70338;BME280;57757;53.198;19.646;2022-09-09T15:06:34;100135.59;;;15.99;58.60
70338;BME280;57757;53.198;19.646;2022-09-09T15:09:05;100135.80;;;16.02;58.72
70338;BME280;57757;53.198;19.646;2022-09-09T15:11:35;100140.11;;;16.03;58.65
70338;BME280;57757;53.198;19.646;2022-09-09T15:14:07;100140.23;;;16.05;58.63
70338;BME280;57757;53.198;19.646;2022-09-09T15:16:35;100137.33;;;16.07;58.70
70338;BME280;57757;53.198;19.646;2022-09-09T15:19:03;100137.66;;;16.10;58.76
70338;BME280;57757;53.198;19.646;2022-09-09T15:21:33;100137.22;;;16.13;58.75
70338;BME280;57757;53.198;19.646;2022-09-09T15:24:02;100132.35;;;16.08;58.47
70338;BME280;57757;53.198;19.646;2022-09-09T15:26:31;100133.11;;;16.03;58.80
70338;BME280;57757;53.198;19.646;2022-09-09T15:28:59;100134.91;;;16.02;58.71
70338;BME280;57757;53.198;19.646;2022-09-09T15:31:30;100132.59;;;15.99;58.87
70338;BME280;57757;53.198;19.646;2022-09-09T15:34:00;100134.50;;;15.96;58.86
70338;BME280;57757;53.198;19.646;2022-09-09T15:39:00;100137.98;;;15.89;59.06
70338;BME280;57757;53.198;19.646;2022-09-09T15:41:29;100138.32;;;15.90;58.97
70338;BME280;57757;53.198;19.646;2022-09-09T15:43:57;100132.72;;;15.89;59.17
70338;BME280;57757;53.198;19.646;2022-09-09T15:46:37;100130.59;;;15.86;59.13
70338;BME280;57757;53.198;19.646;2022-09-09T15:51:54;100125.71;;;15.77;59.10
70338;BME280;57757;53.198;19.646;2022-09-09T15:54:23;100131.98;;;15.74;59.38